.
WxDataArchive / Data Records for 2014-10-07
2014-10-06 October 2014 2014-10-08

Data Records for Tuesday, 07 October 2014

Time	Temp	Chill	HIndex	Humid	Dewpt	 Wind 	HiWind	WindDir	Rain 	Barom
-----	----	-----	------	-----	-----	------	------	-------	-----	-----
00:00	50.4	50.4	50.4	79	44.1	0	0	---	0.00	29.708 
00:05	50.4	50.4	50.4	79	44.1	0	0	---	0.00	29.708 
00:10	50.4	50.4	50.4	79	44.1	0	0	---	0.00	29.708 
00:15	50.2	50.2	50.2	79	43.9	0	0	---	0.00	29.716 
00:20	50.2	50.2	50.2	79	43.9	0	0	---	0.00	29.716 
00:25	50.1	50.1	50.1	80	44.2	0	0	---	0.00	29.716 
00:30	49.9	49.9	49.9	80	44.0	0	0	---	0.00	29.718 
00:35	49.9	49.9	49.9	81	44.3	0	0	---	0.00	29.718 
00:40	49.8	49.8	49.8	81	44.2	0	0	---	0.00	29.718 
00:45	49.6	49.6	49.6	81	44.0	0	0	---	0.00	29.723 
00:50	49.4	49.4	49.4	82	44.1	0	0	---	0.00	29.723 
00:55	49.2	49.2	49.2	82	43.9	0	0	---	0.00	29.723 
01:00	49.1	49.1	49.1	82	43.8	0	0	---	0.00	29.725 
01:05	48.9	48.9	48.9	83	44.0	0	0	---	0.00	29.725 
01:10	48.8	48.8	48.8	83	43.9	0	0	---	0.00	29.725 
01:15	48.6	48.6	48.6	84	44.0	0	0	---	0.00	29.731 
01:20	48.5	48.5	48.5	84	43.9	0	0	---	0.00	29.731 
01:25	48.3	48.3	48.3	84	43.7	0	0	---	0.00	29.731 
01:30	48.3	48.3	48.3	84	43.7	0	0	---	0.00	29.733 
01:35	48.2	48.2	48.2	85	43.9	0	0	---	0.00	29.733 
01:40	48.2	48.2	48.2	85	43.9	0	0	---	0.00	29.733 
01:45	48.2	48.2	48.2	85	43.9	0	0	---	0.00	29.731 
01:50	48.2	48.2	48.2	85	43.9	0	1	90	0.00	29.731 
01:55	48.0	48.0	48.0	85	43.7	0	0	---	0.00	29.731 
02:00	48.0	48.0	48.0	86	44.0	0	0	---	0.00	29.732 
02:05	48.0	48.0	48.0	86	44.0	0	0	---	0.00	29.732 
02:10	47.9	47.9	47.9	86	43.9	0	0	---	0.00	29.732 
02:15	47.7	47.7	47.7	86	43.7	0	0	---	0.00	29.728 
02:20	47.6	47.6	47.6	86	43.6	0	0	---	0.00	29.728 
02:25	47.4	47.4	47.4	87	43.7	0	0	---	0.00	29.728 
02:30	47.3	47.3	47.3	87	43.6	0	0	---	0.00	29.735 
02:35	47.0	47.0	47.0	87	43.3	0	0	---	0.00	29.735 
02:40	46.8	46.8	46.8	88	43.4	0	0	---	0.00	29.735 
02:45	46.7	46.7	46.7	88	43.3	0	0	---	0.00	29.738 
02:50	46.5	46.5	46.5	88	43.1	0	0	---	0.00	29.738 
02:55	46.4	46.4	46.4	88	43.0	0	0	---	0.00	29.738 
03:00	46.2	46.2	46.2	89	43.1	0	0	---	0.00	29.739 
03:05	46.2	46.2	46.2	89	43.1	0	0	---	0.00	29.739 
03:10	46.2	46.2	46.2	89	43.1	0	0	---	0.00	29.739 
03:15	46.2	46.2	46.2	89	43.1	0	0	---	0.00	29.738 
03:20	46.2	46.2	46.2	90	43.4	0	0	---	0.00	29.738 
03:25	46.1	46.1	46.1	90	43.3	0	0	---	0.00	29.738 
03:30	46.1	46.1	46.1	90	43.3	0	0	---	0.00	29.737 
03:35	46.1	46.1	46.1	90	43.3	0	0	---	0.00	29.737 
03:40	46.1	46.1	46.1	90	43.3	0	1	90	0.00	29.737 
03:45	46.1	46.1	46.1	90	43.3	0	1	90	0.00	29.745 
03:50	46.1	46.1	46.1	91	43.6	0	1	90	0.00	29.745 
03:55	46.2	46.2	46.2	91	43.7	0	1	90	0.00	29.745 
04:00	46.2	46.2	46.2	91	43.7	0	1	90	0.00	29.746 
04:05	46.1	46.1	46.1	91	43.6	0	0	---	0.00	29.746 
04:10	46.1	46.1	46.1	91	43.6	0	0	---	0.00	29.746 
04:15	46.0	46.0	46.0	91	43.5	0	0	---	0.00	29.744 
04:20	45.8	45.8	45.8	91	43.3	0	0	---	0.00	29.744 
04:25	45.7	45.7	45.7	91	43.2	0	0	---	0.00	29.744 
04:30	45.5	45.5	45.5	91	43.0	0	0	---	0.00	29.743 
04:35	45.4	45.4	45.4	91	42.9	0	0	---	0.00	29.743 
04:40	45.4	45.4	45.4	91	42.9	0	0	---	0.00	29.743 
04:45	45.4	45.4	45.4	91	42.9	0	0	---	0.00	29.747 
04:50	45.4	45.4	45.4	91	42.9	0	0	---	0.00	29.747 
04:55	45.2	45.2	45.2	91	42.7	0	0	---	0.00	29.747 
05:00	45.2	45.2	45.2	91	42.7	0	0	---	0.00	29.749 
05:05	45.1	45.1	45.1	91	42.6	0	0	---	0.00	29.749 
05:10	45.2	45.2	45.2	92	43.0	0	0	---	0.00	29.749 
05:15	45.4	45.4	45.4	92	43.2	0	0	---	0.00	29.743 
05:20	45.5	45.5	45.5	91	43.0	0	0	---	0.00	29.743 
05:25	45.5	45.5	45.5	91	43.0	0	0	---	0.00	29.743 
05:30	45.5	45.5	45.5	91	43.0	0	0	---	0.00	29.735 
05:35	45.5	45.5	45.5	91	43.0	0	0	---	0.00	29.735 
05:40	45.7	45.7	45.7	91	43.2	0	0	---	0.00	29.735 
05:45	45.7	45.7	45.7	91	43.2	0	0	---	0.00	29.736 
05:50	45.5	45.5	45.5	91	43.0	0	0	---	0.00	29.736 
05:55	45.5	45.5	45.5	91	43.0	0	0	---	0.00	29.736 
06:00	45.4	45.4	45.4	91	42.9	0	0	---	0.00	29.736 
06:05	45.5	45.5	45.5	91	43.0	0	0	---	0.00	29.736 
06:10	45.5	45.5	45.5	91	43.0	0	0	---	0.00	29.736 
06:15	45.7	45.7	45.7	91	43.2	0	0	---	0.00	29.738 
06:20	45.8	45.8	45.8	91	43.3	0	1	90	0.00	29.738 
06:25	45.8	45.8	45.8	91	43.3	0	0	---	0.00	29.738 
06:30	46.1	46.1	46.1	92	43.9	0	1	90	0.00	29.738 
06:35	46.2	46.2	46.2	92	44.0	0	1	90	0.00	29.738 
06:40	46.4	46.4	46.4	91	43.9	0	1	90	0.00	29.738 
06:45	46.5	46.5	46.5	91	44.0	0	1	90	0.00	29.735 
06:50	46.7	46.7	46.7	91	44.2	0	1	90	0.00	29.735 
06:55	46.8	46.8	46.8	91	44.3	0	1	90	0.00	29.735 
07:00	47.0	47.0	47.0	91	44.5	0	1	90	0.00	29.741 
07:05	47.1	47.1	47.1	91	44.6	0	1	90	0.00	29.741 
07:10	47.3	47.3	47.3	91	44.8	0	1	90	0.00	29.741 
07:15	47.4	47.4	47.4	91	44.9	0	1	90	0.00	29.746 
07:20	47.6	47.6	47.6	91	45.1	0	1	90	0.00	29.746 
07:25	47.6	47.6	47.6	91	45.1	0	1	90	0.00	29.746 
07:30	47.7	47.7	47.7	91	45.2	0	2	90	0.00	29.750 
07:35	47.7	47.7	47.7	91	45.2	0	1	90	0.00	29.750 
07:40	47.7	47.7	47.7	91	45.2	0	0	---	0.00	29.750 
07:45	47.7	47.7	47.7	91	45.2	0	1	90	0.01	29.750 
07:50	47.9	47.9	47.9	91	45.4	0	1	90	0.00	29.750 
07:55	47.9	47.9	47.9	91	45.4	0	0	---	0.00	29.750 
08:00	47.9	47.9	47.9	91	45.4	0	0	---	0.00	29.748 
08:05	47.9	47.9	47.9	91	45.4	0	0	---	0.00	29.748 
08:10	47.9	47.9	47.9	91	45.4	0	0	---	0.00	29.748 
08:15	47.9	47.9	47.9	91	45.4	0	0	---	0.00	29.751 
08:20	47.9	47.9	47.9	91	45.4	0	0	---	0.00	29.751 
08:25	48.0	48.0	48.0	92	45.8	0	0	---	0.00	29.751 
08:30	48.0	48.0	48.0	92	45.8	0	1	90	0.00	29.750 
08:35	48.0	48.0	48.0	92	45.8	0	0	---	0.00	29.750 
08:40	48.2	48.2	48.2	92	46.0	0	0	---	0.00	29.750 
08:45	48.2	48.2	48.2	92	46.0	0	1	90	0.00	29.750 
08:50	48.3	48.3	48.3	92	46.1	0	0	---	0.00	29.750 
08:55	48.5	48.5	48.5	92	46.3	0	1	90	0.00	29.750 
09:00	48.5	48.5	48.5	92	46.3	0	0	---	0.00	29.754 
09:05	48.6	48.6	48.6	92	46.4	0	1	90	0.00	29.754 
09:10	48.6	48.6	48.6	92	46.4	0	0	---	0.00	29.754 
09:15	48.8	48.8	48.8	92	46.6	0	1	90	0.00	29.756 
09:20	48.8	48.8	48.8	92	46.6	0	1	90	0.00	29.756 
09:25	48.8	48.8	48.8	92	46.6	0	0	---	0.00	29.756 
09:30	48.9	48.9	48.9	92	46.7	0	1	90	0.00	29.754 
09:35	48.9	48.9	48.9	92	46.7	0	0	---	0.00	29.754 
09:40	49.1	49.1	49.1	92	46.9	0	1	90	0.00	29.754 
09:45	49.2	49.2	49.2	92	47.0	0	1	90	0.00	29.755 
09:50	49.2	49.2	49.2	92	47.0	0	0	---	0.00	29.755 
09:55	49.4	49.4	49.4	92	47.2	0	1	90	0.00	29.755 
10:00	49.4	49.4	49.4	92	47.2	0	0	---	0.00	29.751 
10:05	49.5	49.5	49.5	92	47.3	0	0	---	0.00	29.751 
10:10	49.8	49.8	49.8	92	47.6	0	1	90	0.00	29.751 
10:15	49.9	49.9	49.9	92	47.7	0	1	90	0.00	29.742 
10:20	50.5	50.5	50.5	92	48.3	0	1	90	0.00	29.742 
10:25	51.0	51.0	51.0	92	48.8	0	2	90	0.00	29.742 
10:30	51.4	51.4	51.4	91	48.9	0	1	90	0.00	29.744 
10:35	51.9	51.9	51.9	91	49.4	0	2	90	0.00	29.744 
10:40	52.5	52.5	52.5	90	49.7	0	1	90	0.00	29.744 
10:45	52.8	52.8	52.8	90	49.9	0	4	90	0.00	29.737 
10:50	53.2	53.2	53.2	89	50.0	0	2	90	0.00	29.737 
10:55	53.3	53.3	53.3	89	50.1	0	2	90	0.00	29.737 
11:00	53.5	53.5	53.5	89	50.3	0	2	90	0.00	29.733 
11:05	53.8	53.8	53.8	88	50.3	0	2	90	0.00	29.733 
11:10	53.9	53.9	53.9	88	50.4	0	2	90	0.00	29.733 
11:15	54.1	54.1	54.1	88	50.6	0	2	90	0.00	29.729 
11:20	54.5	54.5	54.5	88	51.0	0	1	90	0.00	29.729 
11:25	55.1	55.1	55.1	87	51.3	0	2	90	0.00	29.729 
11:30	55.4	55.4	55.4	86	51.3	0	2	90	0.00	29.711 
11:35	55.4	55.4	55.4	85	51.0	0	2	90	0.00	29.711 
11:40	56.0	56.0	56.0	84	51.2	0	3	90	0.00	29.711 
11:45	56.7	56.7	56.7	83	51.6	1	3	90	0.00	29.707 
11:50	56.9	56.9	56.9	82	51.5	0	3	248	0.00	29.707 
11:55	57.0	57.0	57.0	82	51.6	0	2	248	0.00	29.707 
12:00	57.5	57.5	57.5	82	52.0	0	4	315	0.00	29.712 
12:05	57.5	57.5	57.5	81	51.7	1	3	315	0.00	29.712 
12:10	57.2	57.2	57.2	80	51.1	0	2	315	0.00	29.712 
12:15	57.0	57.0	57.0	80	50.9	0	4	0	0.00	29.714 
12:20	56.9	56.9	56.9	81	51.1	0	2	270	0.00	29.714 
12:25	56.7	56.7	56.7	81	50.9	0	1	270	0.00	29.714 
12:30	56.6	56.6	56.6	81	50.8	0	1	270	0.00	29.704 
12:35	56.5	56.5	56.5	83	51.4	0	1	270	0.01	29.704 
12:40	56.3	56.3	56.3	84	51.5	0	1	270	0.01	29.704 
12:45	55.9	55.9	55.9	85	51.5	0	1	270	0.00	29.712 
12:50	55.7	55.7	55.7	87	51.9	0	1	270	0.00	29.712 
12:55	55.6	55.6	55.6	88	52.1	0	0	---	0.01	29.712 
13:00	55.4	55.4	55.4	88	51.9	0	0	---	0.02	29.706 
13:05	55.3	55.3	55.3	89	52.1	0	0	---	0.01	29.706 
13:10	55.1	55.1	55.1	90	52.2	0	0	---	0.00	29.706 
13:15	55.1	55.1	55.1	90	52.2	0	0	---	0.00	29.703 
13:20	55.3	55.3	55.3	91	52.7	0	0	---	0.00	29.703 
13:25	55.3	55.3	55.3	91	52.7	0	0	---	0.00	29.703 
13:30	55.3	55.3	55.3	91	52.7	0	0	---	0.01	29.697 
13:35	55.1	55.1	55.1	91	52.5	0	0	---	0.01	29.697 
13:40	55.3	55.3	55.3	92	53.0	0	0	---	0.00	29.697 
13:45	55.6	55.6	55.6	92	53.3	0	1	270	0.01	29.686 
13:50	55.9	55.9	55.9	92	53.6	0	1	270	0.00	29.686 
13:55	56.2	56.2	56.2	92	53.9	0	0	---	0.00	29.686 
14:00	56.3	56.3	56.3	92	54.0	0	2	270	0.00	29.684 
14:05	56.5	56.5	56.5	92	54.2	0	0	---	0.00	29.684 
14:10	56.5	56.5	56.5	92	54.2	0	1	270	0.00	29.684 
14:15	56.6	56.6	56.6	92	54.3	0	0	---	0.00	29.683 
14:20	56.6	56.6	56.6	92	54.3	0	0	---	0.00	29.683 
14:25	56.5	56.5	56.5	92	54.2	0	0	---	0.00	29.683 
14:30	56.5	56.5	56.5	92	54.2	0	0	---	0.00	29.682 
14:35	56.5	56.5	56.5	92	54.2	0	0	---	0.01	29.682 
14:40	56.5	56.5	56.5	92	54.2	0	0	---	0.00	29.682 
14:45	56.3	56.3	56.3	92	54.0	0	0	---	0.02	29.672 
14:50	56.3	56.3	56.3	92	54.0	0	1	270	0.02	29.672 
14:55	56.3	56.3	56.3	92	54.0	0	0	---	0.03	29.672 
15:00	56.3	56.3	56.3	92	54.0	0	1	270	0.05	29.666 
15:05	56.2	56.2	56.2	92	53.9	0	1	270	0.06	29.666 
15:10	55.9	55.9	55.9	92	53.6	0	0	---	0.05	29.666 
15:15	55.7	55.7	55.7	93	53.7	0	0	---	0.05	29.660 
15:20	55.6	55.6	55.6	93	53.6	0	0	---	0.02	29.660 
15:25	55.6	55.6	55.6	93	53.6	0	2	270	0.01	29.660 
15:30	55.7	55.7	55.7	93	53.7	1	4	270	0.00	29.655 
15:35	55.6	55.6	55.6	93	53.6	1	3	270	0.00	29.655 
15:40	55.4	55.4	55.4	93	53.4	1	4	270	0.00	29.655 
15:45	55.6	55.6	55.6	93	53.6	0	1	270	0.00	29.656 
15:50	55.9	55.9	55.9	94	54.2	0	1	270	0.00	29.656 
15:55	56.5	56.5	56.5	94	54.8	0	0	---	0.00	29.656 
16:00	57.0	57.0	57.0	94	55.3	0	1	270	0.00	29.653 
16:05	57.5	57.5	57.5	94	55.8	0	2	270	0.00	29.653 
16:10	57.6	57.6	57.6	94	55.9	0	2	270	0.00	29.653 
16:15	57.3	57.3	57.3	93	55.3	0	2	270	0.00	29.657 
16:20	57.2	57.2	57.2	93	55.2	0	2	270	0.00	29.657 
16:25	56.9	56.9	56.9	93	54.9	0	1	270	0.00	29.657 
16:30	56.7	56.7	56.7	93	54.7	0	2	270	0.00	29.656 
16:35	56.5	56.5	56.5	92	54.2	0	0	---	0.00	29.656 
16:40	56.3	56.3	56.3	92	54.0	0	1	270	0.00	29.656 
16:45	56.2	56.2	56.2	92	53.9	0	1	270	0.00	29.658 
16:50	56.0	56.0	56.0	92	53.7	0	1	270	0.00	29.658 
16:55	55.9	55.9	55.9	93	53.9	0	0	---	0.00	29.658 
17:00	55.9	55.9	55.9	93	53.9	0	0	---	0.00	29.659 
17:05	56.0	56.0	56.0	93	54.0	0	0	---	0.00	29.659 
17:10	56.0	56.0	56.0	93	54.0	0	0	---	0.00	29.659 
17:15	56.0	56.0	56.0	93	54.0	0	0	---	0.00	29.658 
17:20	56.0	56.0	56.0	93	54.0	0	0	---	0.00	29.658 
17:25	56.0	56.0	56.0	93	54.0	0	0	---	0.00	29.658 
17:30	56.0	56.0	56.0	93	54.0	0	0	---	0.00	29.669 
17:35	56.0	56.0	56.0	93	54.0	0	0	---	0.00	29.669 
17:40	55.7	55.7	55.7	92	53.4	0	1	270	0.00	29.669 
17:45	55.1	55.1	55.1	92	52.8	0	1	270	0.00	29.668 
17:50	54.7	54.7	54.7	92	52.4	0	0	---	0.00	29.668 
17:55	54.5	54.5	54.5	92	52.2	0	0	---	0.00	29.668 
18:00	54.5	54.5	54.5	93	52.5	0	0	---	0.00	29.668 
18:05	54.7	54.7	54.7	93	52.7	0	0	---	0.00	29.668 
18:10	54.7	54.7	54.7	93	52.7	0	0	---	0.00	29.668 
18:15	54.5	54.5	54.5	93	52.5	0	0	---	0.00	29.680 
18:20	54.4	54.4	54.4	93	52.4	0	1	270	0.00	29.680 
18:25	54.4	54.4	54.4	93	52.4	0	0	---	0.00	29.680 
18:30	54.2	54.2	54.2	93	52.2	0	0	---	0.00	29.673 
18:35	54.2	54.2	54.2	93	52.2	0	0	---	0.00	29.673 
18:40	54.4	54.4	54.4	93	52.4	0	1	270	0.00	29.673 
18:45	54.5	54.5	54.5	93	52.5	0	0	---	0.00	29.677 
18:50	54.5	54.5	54.5	93	52.5	0	0	---	0.00	29.677 
18:55	54.7	54.7	54.7	93	52.7	0	0	---	0.00	29.677 
19:00	54.5	54.5	54.5	92	52.2	0	1	270	0.00	29.697 
19:05	54.2	54.2	54.2	92	51.9	0	1	270	0.00	29.697 
19:10	53.9	53.9	53.9	92	51.6	0	0	---	0.00	29.697 
19:15	53.6	53.6	53.6	92	51.3	0	1	270	0.00	29.693 
19:20	53.3	53.3	53.3	92	51.0	0	0	---	0.00	29.693 
19:25	52.9	52.9	52.9	92	50.6	0	0	---	0.00	29.693 
19:30	52.6	52.6	52.6	92	50.3	0	0	---	0.00	29.700 
19:35	52.3	52.3	52.3	92	50.0	0	0	---	0.00	29.700 
19:40	52.2	52.2	52.2	92	49.9	0	0	---	0.00	29.700 
19:45	51.9	51.9	51.9	92	49.6	0	0	---	0.00	29.705 
19:50	51.6	51.6	51.6	92	49.4	0	0	---	0.00	29.705 
19:55	51.4	51.4	51.4	92	49.2	0	1	270	0.00	29.705 
20:00	51.3	51.3	51.3	92	49.1	0	0	---	0.00	29.717 
20:05	51.1	51.1	51.1	92	48.9	0	1	270	0.00	29.717 
20:10	51.1	51.1	51.1	92	48.9	0	1	270	0.00	29.717 
20:15	51.1	51.1	51.1	92	48.9	0	0	---	0.00	29.725 
20:20	51.1	51.1	51.1	92	48.9	0	0	---	0.00	29.725 
20:25	51.0	51.0	51.0	92	48.8	0	0	---	0.00	29.725 
20:30	51.0	51.0	51.0	92	48.8	0	0	---	0.00	29.727 
20:35	50.8	50.8	50.8	93	48.8	0	0	---	0.00	29.727 
20:40	50.7	50.7	50.7	93	48.7	0	0	---	0.00	29.727 
20:45	50.5	50.5	50.5	93	48.6	0	0	---	0.00	29.737 
20:50	50.5	50.5	50.5	93	48.6	0	0	---	0.00	29.737 
20:55	50.5	50.5	50.5	93	48.6	0	0	---	0.00	29.737 
21:00	50.7	50.7	50.7	93	48.7	0	0	---	0.00	29.751 
21:05	50.7	50.7	50.7	93	48.7	0	0	---	0.00	29.751 
21:10	50.7	50.7	50.7	93	48.7	0	0	---	0.00	29.751 
21:15	50.5	50.5	50.5	93	48.6	0	0	---	0.00	29.756 
21:20	50.5	50.5	50.5	93	48.6	0	0	---	0.00	29.756 
21:25	50.5	50.5	50.5	93	48.6	0	0	---	0.00	29.756 
21:30	50.5	50.5	50.5	93	48.6	0	0	---	0.00	29.763 
21:35	50.4	50.4	50.4	94	48.7	0	0	---	0.00	29.763 
21:40	50.4	50.4	50.4	94	48.7	0	0	---	0.00	29.763 
21:45	50.4	50.4	50.4	94	48.7	0	0	---	0.00	29.769 
21:50	50.2	50.2	50.2	94	48.5	0	0	---	0.00	29.769 
21:55	50.2	50.2	50.2	94	48.5	0	0	---	0.00	29.769 
22:00	50.2	50.2	50.2	94	48.5	0	0	---	0.00	29.771 
22:05	50.2	50.2	50.2	94	48.5	0	0	---	0.00	29.771 
22:10	50.2	50.2	50.2	94	48.5	0	0	---	0.00	29.771 
22:15	50.2	50.2	50.2	94	48.5	0	1	270	0.00	29.766 
22:20	50.2	50.2	50.2	94	48.5	0	0	---	0.00	29.766 
22:25	50.1	50.1	50.1	94	48.4	0	0	---	0.00	29.766 
22:30	49.9	49.9	49.9	94	48.2	0	0	---	0.00	29.772 
22:35	49.8	49.8	49.8	94	48.1	0	0	---	0.00	29.772 
22:40	49.6	49.6	49.6	94	47.9	0	0	---	0.00	29.772 
22:45	49.5	49.5	49.5	94	47.8	0	0	---	0.00	29.778 
22:50	49.4	49.4	49.4	94	47.7	0	0	---	0.00	29.778 
22:55	49.2	49.2	49.2	94	47.5	0	0	---	0.00	29.778 
23:00	49.2	49.2	49.2	94	47.5	0	0	---	0.00	29.784 
23:05	49.1	49.1	49.1	94	47.4	0	0	---	0.00	29.784 
23:10	49.1	49.1	49.1	94	47.4	0	0	---	0.00	29.784 
23:15	49.1	49.1	49.1	94	47.4	0	0	---	0.00	29.785 
23:20	49.1	49.1	49.1	94	47.4	0	0	---	0.00	29.785 
23:25	49.1	49.1	49.1	94	47.4	0	0	---	0.00	29.785 
23:30	49.1	49.1	49.1	94	47.4	0	0	---	0.00	29.790 
23:35	49.1	49.1	49.1	94	47.4	0	0	---	0.00	29.790 
23:40	49.1	49.1	49.1	94	47.4	0	0	---	0.00	29.790 
23:45	48.9	48.9	48.9	94	47.2	0	0	---	0.00	29.792 
23:50	48.8	48.8	48.8	94	47.1	0	0	---	0.00	29.792 
23:55	48.8	48.8	48.8	94	47.1	0	0	---	0.00	29.792 

CoCoRaHS
IN-AL-39
A2 Web Hosting
Creative Commons License
GoDaddy
search engine by freefind advanced

loaded 2018-11-17 22:43:54 • last modified 2010-11-18 10:43:29
Privacy PolicyDisclaimer
• wx.awcolley.com is powered by PmWiki v.2002016 •
• all content (unless otherwise noted) © 2018 A W Colley